sensor_id;sensor_type;location;lat;lon;timestamp;pressure;altitude;pressure_sealevel;temperature;humidity
76108;BME280;64834;52.516;10.528;2022-11-30T00:01:56;101600.94;;;3.73;95.35
76108;BME280;64834;52.516;10.528;2022-11-30T00:04:22;101603.13;;;4.04;95.00
76108;BME280;64834;52.516;10.528;2022-11-30T00:06:47;101609.38;;;3.98;94.41
76108;BME280;64834;52.516;10.528;2022-11-30T00:09:12;101604.97;;;3.88;94.59
76108;BME280;64834;52.516;10.528;2022-11-30T00:11:38;101610.16;;;3.97;95.01
76108;BME280;64834;52.516;10.528;2022-11-30T00:14:03;101612.75;;;3.97;94.64
76108;BME280;64834;52.516;10.528;2022-11-30T00:16:28;101615.91;;;4.03;94.37
76108;BME280;64834;52.516;10.528;2022-11-30T00:18:54;101619.88;;;3.99;94.49
76108;BME280;64834;52.516;10.528;2022-11-30T00:21:19;101615.00;;;4.02;94.36
76108;BME280;64834;52.516;10.528;2022-11-30T00:23:46;101618.66;;;4.04;94.30
76108;BME280;64834;52.516;10.528;2022-11-30T00:26:13;101626.88;;;4.00;94.49
76108;BME280;64834;52.516;10.528;2022-11-30T00:28:39;101623.69;;;4.03;94.76
76108;BME280;64834;52.516;10.528;2022-11-30T00:31:07;101610.59;;;3.93;94.60
76108;BME280;64834;52.516;10.528;2022-11-30T00:33:34;101610.88;;;4.04;94.70
76108;BME280;64834;52.516;10.528;2022-11-30T00:36:02;101607.66;;;4.07;94.42
76108;BME280;64834;52.516;10.528;2022-11-30T00:38:30;101611.34;;;4.00;94.82
76108;BME280;64834;52.516;10.528;2022-11-30T00:40:55;101600.72;;;3.97;94.87
76108;BME280;64834;52.516;10.528;2022-11-30T00:43:21;101603.47;;;3.90;95.13
76108;BME280;64834;52.516;10.528;2022-11-30T00:45:46;101607.56;;;3.97;95.23
76108;BME280;64834;52.516;10.528;2022-11-30T00:48:11;101606.47;;;3.95;95.36
76108;BME280;64834;52.516;10.528;2022-11-30T00:50:37;101603.44;;;3.99;95.13
76108;BME280;64834;52.516;10.528;2022-11-30T00:53:02;101611.34;;;4.00;95.23
76108;BME280;64834;52.516;10.528;2022-11-30T00:55:27;101606.66;;;3.96;95.03
76108;BME280;64834;52.516;10.528;2022-11-30T00:57:53;101611.34;;;4.00;94.88
76108;BME280;64834;52.516;10.528;2022-11-30T01:00:18;101611.47;;;4.02;95.13
76108;BME280;64834;52.516;10.528;2022-11-30T01:02:44;101606.47;;;3.95;95.48
76108;BME280;64834;52.516;10.528;2022-11-30T01:05:10;101610.75;;;4.03;95.19
76108;BME280;64834;52.516;10.528;2022-11-30T01:07:35;101611.16;;;4.07;94.75
76108;BME280;64834;52.516;10.528;2022-11-30T01:10:01;101611.78;;;4.05;94.91
76108;BME280;64834;52.516;10.528;2022-11-30T01:12:26;101605.56;;;3.94;94.90
76108;BME280;64834;52.516;10.528;2022-11-30T01:14:52;101611.38;;;3.92;95.36
76108;BME280;64834;52.516;10.528;2022-11-30T01:17:17;101615.66;;;3.83;95.26
76108;BME280;64834;52.516;10.528;2022-11-30T01:19:42;101612.91;;;3.90;95.59
76108;BME280;64834;52.516;10.528;2022-11-30T01:22:07;101624.50;;;3.76;95.78
76108;BME280;64834;52.516;10.528;2022-11-30T01:24:33;101616.53;;;4.00;95.24
76108;BME280;64834;52.516;10.528;2022-11-30T01:26:58;101609.97;;;4.04;95.17
76108;BME280;64834;52.516;10.528;2022-11-30T01:29:23;101618.38;;;3.93;94.92
76108;BME280;64834;52.516;10.528;2022-11-30T01:31:49;101616.69;;;3.93;95.48
76108;BME280;64834;52.516;10.528;2022-11-30T01:34:14;101614.09;;;3.93;95.19
76108;BME280;64834;52.516;10.528;2022-11-30T01:36:39;101619.41;;;4.03;95.11
76108;BME280;64834;52.516;10.528;2022-11-30T01:39:07;101621.75;;;3.92;94.92
76108;BME280;64834;52.516;10.528;2022-11-30T01:41:33;101614.75;;;3.82;95.33
76108;BME280;64834;52.516;10.528;2022-11-30T01:47:10;101617.66;;;3.85;95.64
76108;BME280;64834;52.516;10.528;2022-11-30T01:49:54;101622.59;;;4.01;95.23
76108;BME280;64834;52.516;10.528;2022-11-30T01:52:27;101617.91;;;3.97;95.08
76108;BME280;64834;52.516;10.528;2022-11-30T01:57:26;101621.88;;;3.93;95.76
76108;BME280;64834;52.516;10.528;2022-11-30T01:59:56;101624.59;;;3.95;95.56
76108;BME280;64834;52.516;10.528;2022-11-30T02:02:49;101617.59;;;3.94;95.31
76108;BME280;64834;52.516;10.528;2022-11-30T02:05:17;101611.66;;;3.95;95.47
76108;BME280;64834;52.516;10.528;2022-11-30T02:07:43;101611.97;;;3.89;95.16
76108;BME280;64834;52.516;10.528;2022-11-30T02:10:28;101616.06;;;3.96;95.38
76108;BME280;64834;52.516;10.528;2022-11-30T02:15:43;101609.25;;;3.88;95.46
76108;BME280;64834;52.516;10.528;2022-11-30T02:18:20;101608.06;;;3.84;95.31
76108;BME280;64834;52.516;10.528;2022-11-30T02:21:14;101603.78;;;3.85;96.10
76108;BME280;64834;52.516;10.528;2022-11-30T02:24:00;101609.38;;;3.89;95.68
76108;BME280;64834;52.516;10.528;2022-11-30T02:32:18;101609.78;;;3.66;96.14
76108;BME280;64834;52.516;10.528;2022-11-30T02:34:45;101609.56;;;3.82;96.11
76108;BME280;64834;52.516;10.528;2022-11-30T02:37:13;101613.88;;;3.73;95.93
76108;BME280;64834;52.516;10.528;2022-11-30T02:39:41;101614.19;;;3.67;96.26
76108;BME280;64834;52.516;10.528;2022-11-30T02:42:11;101605.63;;;3.86;96.22
76108;BME280;64834;52.516;10.528;2022-11-30T02:44:39;101607.28;;;3.76;96.16
76108;BME280;64834;52.516;10.528;2022-11-30T02:49:58;101617.94;;;3.88;95.37
76108;BME280;64834;52.516;10.528;2022-11-30T02:52:26;101612.16;;;3.82;95.60
76108;BME280;64834;52.516;10.528;2022-11-30T02:55:01;101615.41;;;3.71;95.95
76108;BME280;64834;52.516;10.528;2022-11-30T02:57:28;101615.09;;;3.68;96.09
76108;BME280;64834;52.516;10.528;2022-11-30T02:59:53;101615.97;;;3.77;95.70
76108;BME280;64834;52.516;10.528;2022-11-30T03:02:19;101612.94;;;3.81;95.91
76108;BME280;64834;52.516;10.528;2022-11-30T03:04:44;101620.06;;;3.92;95.43
76108;BME280;64834;52.516;10.528;2022-11-30T03:07:10;101614.47;;;3.70;95.85
76108;BME280;64834;52.516;10.528;2022-11-30T03:09:35;101623.31;;;3.64;96.21
76108;BME280;64834;52.516;10.528;2022-11-30T03:12:00;101623.16;;;3.71;96.15
76108;BME280;64834;52.516;10.528;2022-11-30T03:14:26;101626.81;;;3.73;96.25
76108;BME280;64834;52.516;10.528;2022-11-30T03:16:51;101621.91;;;3.85;95.81
76108;BME280;64834;52.516;10.528;2022-11-30T03:19:16;101628.00;;;3.85;95.40
76108;BME280;64834;52.516;10.528;2022-11-30T03:21:42;101626.75;;;3.99;95.12
76108;BME280;64834;52.516;10.528;2022-11-30T03:24:07;101626.88;;;4.00;94.84
76108;BME280;64834;52.516;10.528;2022-11-30T03:26:32;101618.25;;;3.91;95.27
76108;BME280;64834;52.516;10.528;2022-11-30T03:28:58;101630.56;;;4.02;94.98
76108;BME280;64834;52.516;10.528;2022-11-30T03:31:23;101622.19;;;3.88;95.31
76108;BME280;64834;52.516;10.528;2022-11-30T03:33:48;101633.78;;;3.83;95.40
76108;BME280;64834;52.516;10.528;2022-11-30T03:36:14;101627.50;;;3.89;95.62
76108;BME280;64834;52.516;10.528;2022-11-30T03:38:39;101625.69;;;3.88;95.73
76108;BME280;64834;52.516;10.528;2022-11-30T03:41:12;101630.28;;;3.91;95.62
76108;BME280;64834;52.516;10.528;2022-11-30T03:43:38;101639.72;;;3.90;95.77
76108;BME280;64834;52.516;10.528;2022-11-30T03:46:03;101644.59;;;3.87;95.85
76108;BME280;64834;52.516;10.528;2022-11-30T03:48:29;101643.53;;;3.85;95.58
76108;BME280;64834;52.516;10.528;2022-11-30T03:50:55;101638.22;;;3.75;95.73
76108;BME280;64834;52.516;10.528;2022-11-30T03:53:22;101628.00;;;3.85;95.66
76108;BME280;64834;52.516;10.528;2022-11-30T03:55:55;101637.44;;;3.76;95.77
76108;BME280;64834;52.516;10.528;2022-11-30T03:58:22;101644.72;;;3.89;95.85
76108;BME280;64834;52.516;10.528;2022-11-30T04:00:47;101645.97;;;3.75;95.80
76108;BME280;64834;52.516;10.528;2022-11-30T04:03:13;101649.50;;;3.67;96.18
76108;BME280;64834;52.516;10.528;2022-11-30T04:05:38;101647.81;;;3.76;96.57
76108;BME280;64834;52.516;10.528;2022-11-30T04:08:04;101649.94;;;3.80;96.13
76108;BME280;64834;52.516;10.528;2022-11-30T04:10:29;101649.94;;;3.80;96.69
76108;BME280;64834;52.516;10.528;2022-11-30T04:12:55;101643.25;;;3.73;96.23
76108;BME280;64834;52.516;10.528;2022-11-30T04:15:20;101652.81;;;3.83;96.35
76108;BME280;64834;52.516;10.528;2022-11-30T04:17:45;101658.00;;;3.92;95.79
76108;BME280;64834;52.516;10.528;2022-11-30T04:20:11;101663.03;;;3.90;95.65
76108;BME280;64834;52.516;10.528;2022-11-30T04:22:36;101646.22;;;3.95;95.61
76108;BME280;64834;52.516;10.528;2022-11-30T04:25:01;101659.38;;;3.79;95.68
76108;BME280;64834;52.516;10.528;2022-11-30T04:27:27;101662.25;;;3.91;96.13
76108;BME280;64834;52.516;10.528;2022-11-30T04:29:53;101662.41;;;3.93;95.64
76108;BME280;64834;52.516;10.528;2022-11-30T04:32:18;101664.34;;;3.95;95.62
76108;BME280;64834;52.516;10.528;2022-11-30T04:34:43;101662.25;;;3.83;95.51
76108;BME280;64834;52.516;10.528;2022-11-30T04:37:09;101661.94;;;3.88;96.11
76108;BME280;64834;52.516;10.528;2022-11-30T04:39:34;101665.91;;;3.93;96.04
76108;BME280;64834;52.516;10.528;2022-11-30T04:42:00;101667.75;;;3.77;95.95
76108;BME280;64834;52.516;10.528;2022-11-30T04:44:25;101672.59;;;4.00;95.84
76108;BME280;64834;52.516;10.528;2022-11-30T04:46:50;101663.16;;;3.83;95.90
76108;BME280;64834;52.516;10.528;2022-11-30T04:49:16;101665.16;;;3.86;96.18
76108;BME280;64834;52.516;10.528;2022-11-30T04:51:41;101661.06;;;3.79;95.79
76108;BME280;64834;52.516;10.528;2022-11-30T04:54:06;101666.53;;;3.82;96.48
76108;BME280;64834;52.516;10.528;2022-11-30T04:56:32;101662.28;;;3.74;96.71
76108;BME280;64834;52.516;10.528;2022-11-30T04:58:57;101668.81;;;3.79;96.41
76108;BME280;64834;52.516;10.528;2022-11-30T05:01:23;101660.78;;;3.59;96.66
76108;BME280;64834;52.516;10.528;2022-11-30T05:03:48;101666.53;;;3.73;97.04
76108;BME280;64834;52.516;10.528;2022-11-30T05:06:13;101662.59;;;3.60;97.19
76108;BME280;64834;52.516;10.528;2022-11-30T05:08:39;101665.50;;;3.54;97.65
76108;BME280;64834;52.516;10.528;2022-11-30T05:11:04;101666.84;;;3.85;97.03
76108;BME280;64834;52.516;10.528;2022-11-30T05:13:29;101675.06;;;3.64;96.92
76108;BME280;64834;52.516;10.528;2022-11-30T05:15:55;101674.00;;;3.79;96.71
76108;BME280;64834;52.516;10.528;2022-11-30T05:18:20;101678.56;;;3.73;97.02
76108;BME280;64834;52.516;10.528;2022-11-30T05:20:47;101681.75;;;3.70;97.02
76108;BME280;64834;52.516;10.528;2022-11-30T05:23:13;101679.16;;;3.88;96.68
76108;BME280;64834;52.516;10.528;2022-11-30T05:25:38;101688.13;;;4.00;96.08
76108;BME280;64834;52.516;10.528;2022-11-30T05:28:04;101680.69;;;3.77;96.39
76108;BME280;64834;52.516;10.528;2022-11-30T05:30:29;101692.41;;;3.91;96.42
76108;BME280;64834;52.516;10.528;2022-11-30T05:32:54;101690.13;;;3.85;96.25
76108;BME280;64834;52.516;10.528;2022-11-30T05:35:20;101689.22;;;3.76;96.40
76108;BME280;64834;52.516;10.528;2022-11-30T05:37:45;101701.88;;;3.73;96.79
76108;BME280;64834;52.516;10.528;2022-11-30T05:40:11;101696.69;;;3.73;96.83
76108;BME280;64834;52.516;10.528;2022-11-30T05:42:36;101695.28;;;3.94;96.51
76108;BME280;64834;52.516;10.528;2022-11-30T05:45:01;101698.50;;;3.91;96.36
76108;BME280;64834;52.516;10.528;2022-11-30T05:47:27;101693.63;;;3.86;96.28
76108;BME280;64834;52.516;10.528;2022-11-30T05:49:52;101699.75;;;3.77;96.80
76108;BME280;64834;52.516;10.528;2022-11-30T05:52:17;101699.59;;;3.85;96.98
76108;BME280;64834;52.516;10.528;2022-11-30T05:54:43;101705.84;;;3.78;96.77
76108;BME280;64834;52.516;10.528;2022-11-30T05:57:08;101707.50;;;3.69;97.34
76108;BME280;64834;52.516;10.528;2022-11-30T05:59:33;101706.72;;;3.70;97.19
76108;BME280;64834;52.516;10.528;2022-11-30T06:01:59;101709.94;;;3.76;97.29
76108;BME280;64834;52.516;10.528;2022-11-30T06:04:24;101712.50;;;3.93;96.88
76108;BME280;64834;52.516;10.528;2022-11-30T06:06:49;101707.94;;;3.82;96.73
76108;BME280;64834;52.516;10.528;2022-11-30T06:09:16;101707.63;;;3.88;96.86
76108;BME280;64834;52.516;10.528;2022-11-30T06:11:41;101702.94;;;3.84;97.02
76108;BME280;64834;52.516;10.528;2022-11-30T06:14:07;101704.59;;;3.83;97.19
76108;BME280;64834;52.516;10.528;2022-11-30T06:16:32;101709.03;;;3.84;97.17
76108;BME280;64834;52.516;10.528;2022-11-30T06:18:57;101709.16;;;3.86;96.69
76108;BME280;64834;52.516;10.528;2022-11-30T06:21:23;101709.47;;;3.80;97.00
76108;BME280;64834;52.516;10.528;2022-11-30T06:23:48;101712.22;;;3.90;96.91
76108;BME280;64834;52.516;10.528;2022-11-30T06:26:13;101715.09;;;3.93;96.67
76108;BME280;64834;52.516;10.528;2022-11-30T06:28:39;101714.00;;;4.00;96.53
76108;BME280;64834;52.516;10.528;2022-11-30T06:31:06;101716.78;;;3.93;96.39
76108;BME280;64834;52.516;10.528;2022-11-30T06:33:32;101714.19;;;3.93;96.54
76108;BME280;64834;52.516;10.528;2022-11-30T06:35:57;101720.84;;;4.08;96.01
76108;BME280;64834;52.516;10.528;2022-11-30T06:38:22;101723.59;;;4.10;96.25
76108;BME280;64834;52.516;10.528;2022-11-30T06:40:50;101723.00;;;4.03;95.88
76108;BME280;64834;52.516;10.528;2022-11-30T06:43:15;101724.22;;;4.07;95.96
76108;BME280;64834;52.516;10.528;2022-11-30T06:45:44;101727.28;;;4.03;95.99
76108;BME280;64834;52.516;10.528;2022-11-30T06:48:11;101725.78;;;3.96;96.37
76108;BME280;64834;52.516;10.528;2022-11-30T06:50:37;101729.41;;;3.98;96.43
76108;BME280;64834;52.516;10.528;2022-11-30T06:53:02;101736.25;;;3.89;96.48
76108;BME280;64834;52.516;10.528;2022-11-30T06:55:28;101739.63;;;3.88;97.05
76108;BME280;64834;52.516;10.528;2022-11-30T06:58:04;101742.53;;;3.91;96.59
76108;BME280;64834;52.516;10.528;2022-11-30T07:00:29;101747.84;;;3.93;96.70
76108;BME280;64834;52.516;10.528;2022-11-30T07:02:54;101741.91;;;4.02;97.03
76108;BME280;64834;52.516;10.528;2022-11-30T07:05:19;101751.06;;;3.90;96.80
76108;BME280;64834;52.516;10.528;2022-11-30T07:07:45;101750.59;;;3.86;97.03
76108;BME280;64834;52.516;10.528;2022-11-30T07:10:10;101755.00;;;3.95;96.97
76108;BME280;64834;52.516;10.528;2022-11-30T07:12:35;101757.28;;;4.01;96.36
76108;BME280;64834;52.516;10.528;2022-11-30T07:15:01;101761.84;;;4.03;97.11
76108;BME280;64834;52.516;10.528;2022-11-30T07:17:26;101756.38;;;4.09;96.39
76108;BME280;64834;52.516;10.528;2022-11-30T07:19:51;101762.75;;;4.13;96.22
76108;BME280;64834;52.516;10.528;2022-11-30T07:22:17;101762.28;;;4.17;95.65
76108;BME280;64834;52.516;10.528;2022-11-30T07:24:42;101758.34;;;4.12;96.03
76108;BME280;64834;52.516;10.528;2022-11-30T07:27:26;101762.88;;;4.31;96.03
76108;BME280;64834;52.516;10.528;2022-11-30T07:29:52;101761.34;;;4.25;96.10
76108;BME280;64834;52.516;10.528;2022-11-30T07:32:18;101767.13;;;4.31;95.68
76108;BME280;64834;52.516;10.528;2022-11-30T07:34:43;101766.53;;;4.25;95.81
76108;BME280;64834;52.516;10.528;2022-11-30T07:37:09;101765.47;;;4.23;95.78
76108;BME280;64834;52.516;10.528;2022-11-30T07:39:34;101771.72;;;4.25;95.49
76108;BME280;64834;52.516;10.528;2022-11-30T07:41:59;101776.44;;;4.29;95.43
76108;BME280;64834;52.516;10.528;2022-11-30T07:44:26;101775.03;;;4.32;95.26
76108;BME280;64834;52.516;10.528;2022-11-30T07:46:51;101776.31;;;4.27;95.50
76108;BME280;64834;52.516;10.528;2022-11-30T07:49:17;101778.13;;;4.28;95.08
76108;BME280;64834;52.516;10.528;2022-11-30T07:51:42;101769.88;;;4.32;95.86
76108;BME280;64834;52.516;10.528;2022-11-30T07:54:08;101769.75;;;4.22;95.31
76108;BME280;64834;52.516;10.528;2022-11-30T07:56:33;101783.91;;;4.35;95.52
76108;BME280;64834;52.516;10.528;2022-11-30T07:59:00;101781.00;;;4.31;95.01
76108;BME280;64834;52.516;10.528;2022-11-30T08:01:28;101786.31;;;4.33;94.82
76108;BME280;64834;52.516;10.528;2022-11-30T08:03:54;101787.41;;;4.26;95.63
76108;BME280;64834;52.516;10.528;2022-11-30T08:06:25;101780.72;;;4.28;95.61
76108;BME280;64834;52.516;10.528;2022-11-30T08:08:52;101785.00;;;4.28;95.47
76108;BME280;64834;52.516;10.528;2022-11-30T08:11:21;101774.16;;;4.23;95.68
76108;BME280;64834;52.516;10.528;2022-11-30T08:13:47;101768.84;;;4.22;95.93
76108;BME280;64834;52.516;10.528;2022-11-30T08:16:15;101780.06;;;4.40;95.19
76108;BME280;64834;52.516;10.528;2022-11-30T08:18:42;101773.41;;;4.24;95.48
76108;BME280;64834;52.516;10.528;2022-11-30T08:21:09;101786.66;;;4.27;95.41
76108;BME280;64834;52.516;10.528;2022-11-30T08:23:37;101791.66;;;4.26;95.79
76108;BME280;64834;52.516;10.528;2022-11-30T08:26:05;101784.22;;;4.29;95.73
76108;BME280;64834;52.516;10.528;2022-11-30T08:28:31;101784.81;;;4.26;95.28
76108;BME280;64834;52.516;10.528;2022-11-30T08:31:09;101788.00;;;4.32;95.38
76108;BME280;64834;52.516;10.528;2022-11-30T08:33:36;101783.13;;;4.36;95.15
76108;BME280;64834;52.516;10.528;2022-11-30T08:36:21;101796.84;;;4.26;95.24
76108;BME280;64834;52.516;10.528;2022-11-30T08:38:47;101804.03;;;4.28;95.42
76108;BME280;64834;52.516;10.528;2022-11-30T08:41:17;101805.41;;;4.16;95.75
76108;BME280;64834;52.516;10.528;2022-11-30T08:43:46;101800.06;;;4.23;95.64
76108;BME280;64834;52.516;10.528;2022-11-30T08:46:14;101800.53;;;4.19;95.88
76108;BME280;64834;52.516;10.528;2022-11-30T08:48:40;101804.19;;;4.13;95.95
76108;BME280;64834;52.516;10.528;2022-11-30T08:51:09;101807.69;;;4.22;95.87
76108;BME280;64834;52.516;10.528;2022-11-30T08:53:35;101806.16;;;4.24;95.86
76108;BME280;64834;52.516;10.528;2022-11-30T08:56:03;101803.72;;;4.25;95.64
76108;BME280;64834;52.516;10.528;2022-11-30T08:58:30;101814.72;;;4.23;95.96
76108;BME280;64834;52.516;10.528;2022-11-30T09:03:31;101826.44;;;4.28;95.75
76108;BME280;64834;52.516;10.528;2022-11-30T09:06:03;101825.50;;;4.36;95.56
76108;BME280;64834;52.516;10.528;2022-11-30T09:08:28;101815.44;;;4.30;95.70
76108;BME280;64834;52.516;10.528;2022-11-30T09:10:53;101822.63;;;4.24;95.88
76108;BME280;64834;52.516;10.528;2022-11-30T09:13:19;101825.69;;;4.29;95.57
76108;BME280;64834;52.516;10.528;2022-11-30T09:15:53;101829.66;;;4.17;95.82
76108;BME280;64834;52.516;10.528;2022-11-30T09:18:18;101827.34;;;4.20;95.83
76108;BME280;64834;52.516;10.528;2022-11-30T09:20:43;101832.34;;;4.27;96.12
76108;BME280;64834;52.516;10.528;2022-11-30T09:23:08;101830.38;;;4.33;96.04
76108;BME280;64834;52.516;10.528;2022-11-30T09:25:34;101830.66;;;4.45;95.73
76108;BME280;64834;52.516;10.528;2022-11-30T09:27:59;101829.00;;;4.37;95.38
76108;BME280;64834;52.516;10.528;2022-11-30T09:30:24;101822.59;;;4.33;95.60
76108;BME280;64834;52.516;10.528;2022-11-30T09:32:50;101818.81;;;4.29;95.94
76108;BME280;64834;52.516;10.528;2022-11-30T09:35:15;101822.28;;;4.39;95.40
76108;BME280;64834;52.516;10.528;2022-11-30T09:37:40;101822.47;;;4.40;95.49
76108;BME280;64834;52.516;10.528;2022-11-30T09:40:06;101826.09;;;4.42;95.34
76108;BME280;64834;52.516;10.528;2022-11-30T09:42:52;101812.38;;;4.43;95.05
76108;BME280;64834;52.516;10.528;2022-11-30T09:45:25;101823.81;;;4.37;95.64
76108;BME280;64834;52.516;10.528;2022-11-30T09:50:34;101827.34;;;4.37;95.44
76108;BME280;64834;52.516;10.528;2022-11-30T09:53:11;101826.25;;;4.44;95.52
76108;BME280;64834;52.516;10.528;2022-11-30T09:55:41;101827.47;;;4.39;95.48
76108;BME280;64834;52.516;10.528;2022-11-30T09:58:15;101818.03;;;4.30;95.71
76108;BME280;64834;52.516;10.528;2022-11-30T10:00:43;101814.50;;;4.39;95.39
76108;BME280;64834;52.516;10.528;2022-11-30T10:03:10;101820.66;;;4.22;96.07
76108;BME280;64834;52.516;10.528;2022-11-30T10:08:54;101819.88;;;4.40;95.92
76108;BME280;64834;52.516;10.528;2022-11-30T10:11:30;101817.88;;;4.38;95.74
76108;BME280;64834;52.516;10.528;2022-11-30T10:17:03;101822.47;;;4.31;95.90
76108;BME280;64834;52.516;10.528;2022-11-30T10:22:31;101814.09;;;4.34;96.08
76108;BME280;64834;52.516;10.528;2022-11-30T10:28:11;101818.94;;;4.31;95.66
76108;BME280;64834;52.516;10.528;2022-11-30T10:30:34;101815.16;;;4.27;96.03
76108;BME280;64834;52.516;10.528;2022-11-30T10:33:08;101818.22;;;4.23;96.10
76108;BME280;64834;52.516;10.528;2022-11-30T10:35:48;101811.03;;;4.47;95.69
76108;BME280;64834;52.516;10.528;2022-11-30T10:38:23;101823.69;;;4.35;95.66
76108;BME280;64834;52.516;10.528;2022-11-30T10:40:52;101816.38;;;4.31;95.81
76108;BME280;64834;52.516;10.528;2022-11-30T10:43:26;101821.88;;;4.34;96.14
76108;BME280;64834;52.516;10.528;2022-11-30T10:45:54;101817.09;;;4.39;96.32
76108;BME280;64834;52.516;10.528;2022-11-30T10:48:50;101813.28;;;4.44;95.50
76108;BME280;64834;52.516;10.528;2022-11-30T10:51:19;101822.47;;;4.40;95.83
76108;BME280;64834;52.516;10.528;2022-11-30T10:53:44;101811.34;;;4.41;95.50
76108;BME280;64834;52.516;10.528;2022-11-30T10:56:12;101824.59;;;4.36;95.57
76108;BME280;64834;52.516;10.528;2022-11-30T10:58:52;101821.53;;;4.31;95.81
76108;BME280;64834;52.516;10.528;2022-11-30T11:01:39;101818.94;;;4.31;96.18
76108;BME280;64834;52.516;10.528;2022-11-30T11:04:24;101823.22;;;4.48;95.66
76108;BME280;64834;52.516;10.528;2022-11-30T11:09:39;101821.03;;;4.52;95.88
76108;BME280;64834;52.516;10.528;2022-11-30T11:12:19;101827.03;;;4.43;96.11
76108;BME280;64834;52.516;10.528;2022-11-30T11:14:45;101821.88;;;4.34;95.79
76108;BME280;64834;52.516;10.528;2022-11-30T11:19:42;101836.63;;;4.44;95.97
76108;BME280;64834;52.516;10.528;2022-11-30T11:22:24;101831.16;;;4.41;96.10
76108;BME280;64834;52.516;10.528;2022-11-30T11:24:54;101827.78;;;4.42;95.58
76108;BME280;64834;52.516;10.528;2022-11-30T11:27:32;101825.47;;;4.45;95.66
76108;BME280;64834;52.516;10.528;2022-11-30T11:32:59;101839.41;;;4.28;96.36
76108;BME280;64834;52.516;10.528;2022-11-30T11:35:40;101839.66;;;4.40;95.93
76108;BME280;64834;52.516;10.528;2022-11-30T11:38:24;101846.41;;;4.46;96.19
76108;BME280;64834;52.516;10.528;2022-11-30T11:41:02;101847.91;;;4.53;95.68
76108;BME280;64834;52.516;10.528;2022-11-30T11:43:30;101846.69;;;4.49;95.68
76108;BME280;64834;52.516;10.528;2022-11-30T11:46:01;101847.44;;;4.48;95.78
76108;BME280;64834;52.516;10.528;2022-11-30T11:51:32;101847.72;;;4.51;95.72
76108;BME280;64834;52.516;10.528;2022-11-30T11:54:01;101848.97;;;4.55;95.52
76108;BME280;64834;52.516;10.528;2022-11-30T11:56:31;101849.56;;;4.52;95.62
76108;BME280;64834;52.516;10.528;2022-11-30T11:59:21;101852.31;;;4.54;95.74
76108;BME280;64834;52.516;10.528;2022-11-30T12:02:10;101852.59;;;4.57;95.47
76108;BME280;64834;52.516;10.528;2022-11-30T12:04:49;101857.50;;;4.54;95.49
76108;BME280;64834;52.516;10.528;2022-11-30T12:07:32;101850.81;;;4.47;95.44
76108;BME280;64834;52.516;10.528;2022-11-30T12:12:57;101851.22;;;4.52;95.33
76108;BME280;64834;52.516;10.528;2022-11-30T12:15:30;101854.44;;;4.49;95.63
76108;BME280;64834;52.516;10.528;2022-11-30T12:18:14;101851.09;;;4.50;95.57
76108;BME280;64834;52.516;10.528;2022-11-30T12:21:02;101860.56;;;4.41;95.62
76108;BME280;64834;52.516;10.528;2022-11-30T12:26:37;101854.78;;;4.35;96.18
76108;BME280;64834;52.516;10.528;2022-11-30T12:29:26;101860.84;;;4.44;95.91
76108;BME280;64834;52.516;10.528;2022-11-30T12:32:04;101861.63;;;4.43;95.76
76108;BME280;64834;52.516;10.528;2022-11-30T12:41:17;101860.84;;;4.44;96.17
76108;BME280;64834;52.516;10.528;2022-11-30T12:49:35;101858.25;;;4.44;95.54
76108;BME280;64834;52.516;10.528;2022-11-30T12:52:37;101858.56;;;4.39;95.28
76108;BME280;64834;52.516;10.528;2022-11-30T12:55:22;101862.69;;;4.37;95.07
76108;BME280;64834;52.516;10.528;2022-11-30T13:00:50;101867.25;;;4.39;95.62
76108;BME280;64834;52.516;10.528;2022-11-30T13:06:00;101870.94;;;4.41;95.36
76108;BME280;64834;52.516;10.528;2022-11-30T13:08:37;101866.53;;;4.40;95.54
76108;BME280;64834;52.516;10.528;2022-11-30T13:11:11;101863.59;;;4.37;95.22
76108;BME280;64834;52.516;10.528;2022-11-30T13:13:42;101862.97;;;4.40;95.41
76108;BME280;64834;52.516;10.528;2022-11-30T13:16:10;101870.16;;;4.42;95.17
76108;BME280;64834;52.516;10.528;2022-11-30T13:18:36;101873.22;;;4.47;95.48
76108;BME280;64834;52.516;10.528;2022-11-30T13:26:41;101877.63;;;4.39;95.19
76108;BME280;64834;52.516;10.528;2022-11-30T13:29:38;101868.50;;;4.34;95.15
76108;BME280;64834;52.516;10.528;2022-11-30T13:32:13;101875.19;;;4.32;95.58
76108;BME280;64834;52.516;10.528;2022-11-30T13:34:39;101865.16;;;4.35;95.37
76108;BME280;64834;52.516;10.528;2022-11-30T13:37:07;101865.44;;;4.29;95.34
76108;BME280;64834;52.516;10.528;2022-11-30T13:39:45;101873.84;;;4.36;95.76
76108;BME280;64834;52.516;10.528;2022-11-30T13:44:56;101869.41;;;4.35;95.34
76108;BME280;64834;52.516;10.528;2022-11-30T13:47:28;101872.28;;;4.38;95.32
76108;BME280;64834;52.516;10.528;2022-11-30T13:49:56;101867.91;;;4.28;95.22
76108;BME280;64834;52.516;10.528;2022-11-30T13:58:07;101863.91;;;4.31;95.28
76108;BME280;64834;52.516;10.528;2022-11-30T14:05:57;101877.34;;;4.27;94.42
76108;BME280;64834;52.516;10.528;2022-11-30T14:11:35;101873.84;;;4.36;94.13
76108;BME280;64834;52.516;10.528;2022-11-30T14:17:03;101865.59;;;4.48;93.41
76108;BME280;64834;52.516;10.528;2022-11-30T14:19:29;101876.41;;;4.53;93.29
76108;BME280;64834;52.516;10.528;2022-11-30T14:21:55;101883.53;;;4.64;93.05
76108;BME280;64834;52.516;10.528;2022-11-30T14:24:22;101876.06;;;4.58;92.80
76108;BME280;64834;52.516;10.528;2022-11-30T14:26:49;101880.97;;;4.55;92.97
76108;BME280;64834;52.516;10.528;2022-11-30T14:29:30;101882.03;;;4.57;92.51
76108;BME280;64834;52.516;10.528;2022-11-30T14:32:15;101881.13;;;4.57;92.29
76108;BME280;64834;52.516;10.528;2022-11-30T14:34:45;101890.72;;;4.58;92.19